sensor_id;sensor_type;location;lat;lon;timestamp;temperature;humidity
30308;DHT22;17114;52.314;8.910;2023-03-18T00:00:12;12.70;99.90
30308;DHT22;17114;52.314;8.910;2023-03-18T00:02:42;12.70;99.90
30308;DHT22;17114;52.314;8.910;2023-03-18T00:05:10;12.70;99.90
30308;DHT22;17114;52.314;8.910;2023-03-18T00:07:39;12.70;99.90
30308;DHT22;17114;52.314;8.910;2023-03-18T00:10:08;12.60;99.90
30308;DHT22;17114;52.314;8.910;2023-03-18T00:12:37;12.70;99.90
30308;DHT22;17114;52.314;8.910;2023-03-18T00:15:10;12.60;99.90
30308;DHT22;17114;52.314;8.910;2023-03-18T00:17:38;12.50;99.90
30308;DHT22;17114;52.314;8.910;2023-03-18T00:20:08;12.50;99.90
30308;DHT22;17114;52.314;8.910;2023-03-18T00:22:36;12.50;99.90
30308;DHT22;17114;52.314;8.910;2023-03-18T00:25:06;12.40;99.90
30308;DHT22;17114;52.314;8.910;2023-03-18T00:27:34;12.40;99.90
30308;DHT22;17114;52.314;8.910;2023-03-18T00:30:02;12.30;99.90
30308;DHT22;17114;52.314;8.910;2023-03-18T00:32:32;12.20;99.90
30308;DHT22;17114;52.314;8.910;2023-03-18T00:35:01;12.10;99.90
30308;DHT22;17114;52.314;8.910;2023-03-18T00:37:30;12.10;99.90
30308;DHT22;17114;52.314;8.910;2023-03-18T00:39:58;12.00;99.90
30308;DHT22;17114;52.314;8.910;2023-03-18T00:42:35;11.90;99.90
30308;DHT22;17114;52.314;8.910;2023-03-18T00:45:07;11.80;99.90
30308;DHT22;17114;52.314;8.910;2023-03-18T00:47:36;11.70;99.90
30308;DHT22;17114;52.314;8.910;2023-03-18T00:50:05;11.60;99.90
30308;DHT22;17114;52.314;8.910;2023-03-18T00:52:35;11.50;99.90
30308;DHT22;17114;52.314;8.910;2023-03-18T00:55:02;11.50;99.90
30308;DHT22;17114;52.314;8.910;2023-03-18T00:57:29;11.50;99.90
30308;DHT22;17114;52.314;8.910;2023-03-18T00:59:57;11.40;99.90
30308;DHT22;17114;52.314;8.910;2023-03-18T01:02:26;11.30;99.90
30308;DHT22;17114;52.314;8.910;2023-03-18T01:04:54;11.30;99.90
30308;DHT22;17114;52.314;8.910;2023-03-18T01:07:22;11.20;99.90
30308;DHT22;17114;52.314;8.910;2023-03-18T01:09:49;11.20;99.90
30308;DHT22;17114;52.314;8.910;2023-03-18T01:12:16;11.10;99.90
30308;DHT22;17114;52.314;8.910;2023-03-18T01:14:43;11.10;99.90
30308;DHT22;17114;52.314;8.910;2023-03-18T01:17:10;11.10;99.90
30308;DHT22;17114;52.314;8.910;2023-03-18T01:19:37;11.10;99.90
30308;DHT22;17114;52.314;8.910;2023-03-18T01:22:04;11.00;99.90
30308;DHT22;17114;52.314;8.910;2023-03-18T01:24:32;11.00;99.90
30308;DHT22;17114;52.314;8.910;2023-03-18T01:26:59;10.90;99.90
30308;DHT22;17114;52.314;8.910;2023-03-18T01:29:26;10.90;99.90
30308;DHT22;17114;52.314;8.910;2023-03-18T01:31:53;10.90;99.90
30308;DHT22;17114;52.314;8.910;2023-03-18T01:34:21;10.90;99.90
30308;DHT22;17114;52.314;8.910;2023-03-18T01:36:48;10.90;99.90
30308;DHT22;17114;52.314;8.910;2023-03-18T01:39:16;10.90;99.90
30308;DHT22;17114;52.314;8.910;2023-03-18T01:41:44;10.80;99.90
30308;DHT22;17114;52.314;8.910;2023-03-18T01:44:21;10.80;99.90
30308;DHT22;17114;52.314;8.910;2023-03-18T01:46:49;10.80;99.90
30308;DHT22;17114;52.314;8.910;2023-03-18T01:49:19;10.80;99.90
30308;DHT22;17114;52.314;8.910;2023-03-18T01:51:54;10.80;99.90
30308;DHT22;17114;52.314;8.910;2023-03-18T01:54:25;10.70;99.90
30308;DHT22;17114;52.314;8.910;2023-03-18T01:56:53;10.70;99.90
30308;DHT22;17114;52.314;8.910;2023-03-18T01:59:25;10.70;99.90
30308;DHT22;17114;52.314;8.910;2023-03-18T02:02:02;10.70;99.90
30308;DHT22;17114;52.314;8.910;2023-03-18T02:04:37;10.70;99.90
30308;DHT22;17114;52.314;8.910;2023-03-18T02:07:04;10.70;99.90
30308;DHT22;17114;52.314;8.910;2023-03-18T02:09:33;10.60;99.90
30308;DHT22;17114;52.314;8.910;2023-03-18T02:12:01;10.60;99.90
30308;DHT22;17114;52.314;8.910;2023-03-18T02:14:28;10.60;99.90
30308;DHT22;17114;52.314;8.910;2023-03-18T02:17:07;10.60;99.90
30308;DHT22;17114;52.314;8.910;2023-03-18T02:25:32;10.60;99.90
30308;DHT22;17114;52.314;8.910;2023-03-18T02:28:09;10.70;99.90
30308;DHT22;17114;52.314;8.910;2023-03-18T02:30:42;10.70;99.90
30308;DHT22;17114;52.314;8.910;2023-03-18T02:33:14;10.70;99.90
30308;DHT22;17114;52.314;8.910;2023-03-18T02:35:46;10.70;99.90
30308;DHT22;17114;52.314;8.910;2023-03-18T02:38:14;10.70;99.90
30308;DHT22;17114;52.314;8.910;2023-03-18T02:40:41;10.70;99.90
30308;DHT22;17114;52.314;8.910;2023-03-18T02:43:22;10.70;99.90
30308;DHT22;17114;52.314;8.910;2023-03-18T02:48:55;10.80;99.90
30308;DHT22;17114;52.314;8.910;2023-03-18T02:51:23;10.80;99.90
30308;DHT22;17114;52.314;8.910;2023-03-18T02:53:57;10.80;99.90
30308;DHT22;17114;52.314;8.910;2023-03-18T02:56:26;10.90;99.90
30308;DHT22;17114;52.314;8.910;2023-03-18T02:58:53;10.80;99.90
30308;DHT22;17114;52.314;8.910;2023-03-18T03:01:20;10.80;99.90
30308;DHT22;17114;52.314;8.910;2023-03-18T03:03:49;10.80;99.90
30308;DHT22;17114;52.314;8.910;2023-03-18T03:06:16;10.80;99.90
30308;DHT22;17114;52.314;8.910;2023-03-18T03:08:43;10.80;99.90
30308;DHT22;17114;52.314;8.910;2023-03-18T03:11:11;10.80;99.90
30308;DHT22;17114;52.314;8.910;2023-03-18T03:13:40;10.80;99.90
30308;DHT22;17114;52.314;8.910;2023-03-18T03:16:08;10.80;99.90
30308;DHT22;17114;52.314;8.910;2023-03-18T03:18:36;10.90;99.90
30308;DHT22;17114;52.314;8.910;2023-03-18T03:21:04;10.80;99.90
30308;DHT22;17114;52.314;8.910;2023-03-18T03:23:32;11.00;99.90
30308;DHT22;17114;52.314;8.910;2023-03-18T03:25:59;10.80;99.90
30308;DHT22;17114;52.314;8.910;2023-03-18T03:28:27;10.80;99.90
30308;DHT22;17114;52.314;8.910;2023-03-18T03:30:54;10.80;99.90
30308;DHT22;17114;52.314;8.910;2023-03-18T03:33:23;10.80;99.90
30308;DHT22;17114;52.314;8.910;2023-03-18T03:35:51;10.80;99.90
30308;DHT22;17114;52.314;8.910;2023-03-18T03:38:18;10.80;99.90
30308;DHT22;17114;52.314;8.910;2023-03-18T03:40:45;10.90;99.90
30308;DHT22;17114;52.314;8.910;2023-03-18T03:43:13;10.90;99.90
30308;DHT22;17114;52.314;8.910;2023-03-18T03:45:43;10.90;99.90
30308;DHT22;17114;52.314;8.910;2023-03-18T03:48:11;10.90;99.90
30308;DHT22;17114;52.314;8.910;2023-03-18T03:50:39;10.90;99.90
30308;DHT22;17114;52.314;8.910;2023-03-18T03:53:06;10.90;99.90
30308;DHT22;17114;52.314;8.910;2023-03-18T03:55:33;10.90;99.90
30308;DHT22;17114;52.314;8.910;2023-03-18T03:58:01;10.90;99.90
30308;DHT22;17114;52.314;8.910;2023-03-18T04:00:28;11.00;99.90
30308;DHT22;17114;52.314;8.910;2023-03-18T04:02:56;11.00;99.90
30308;DHT22;17114;52.314;8.910;2023-03-18T04:05:24;10.90;99.90
30308;DHT22;17114;52.314;8.910;2023-03-18T04:07:51;11.00;99.90
30308;DHT22;17114;52.314;8.910;2023-03-18T04:10:20;11.00;99.90
30308;DHT22;17114;52.314;8.910;2023-03-18T04:12:47;11.10;99.90
30308;DHT22;17114;52.314;8.910;2023-03-18T04:15:16;11.10;99.90
30308;DHT22;17114;52.314;8.910;2023-03-18T04:17:44;11.10;99.90
30308;DHT22;17114;52.314;8.910;2023-03-18T04:20:12;11.10;99.90
30308;DHT22;17114;52.314;8.910;2023-03-18T04:22:39;11.10;99.90
30308;DHT22;17114;52.314;8.910;2023-03-18T04:25:08;11.00;99.90
30308;DHT22;17114;52.314;8.910;2023-03-18T04:27:37;11.00;99.90
30308;DHT22;17114;52.314;8.910;2023-03-18T04:30:06;11.00;99.90
30308;DHT22;17114;52.314;8.910;2023-03-18T04:32:34;11.00;99.90
30308;DHT22;17114;52.314;8.910;2023-03-18T04:35:01;11.00;99.90
30308;DHT22;17114;52.314;8.910;2023-03-18T04:37:28;10.90;99.90
30308;DHT22;17114;52.314;8.910;2023-03-18T04:39:55;10.90;99.90
30308;DHT22;17114;52.314;8.910;2023-03-18T04:42:24;10.90;99.90
30308;DHT22;17114;52.314;8.910;2023-03-18T04:44:51;10.80;99.90
30308;DHT22;17114;52.314;8.910;2023-03-18T04:47:19;10.80;99.90
30308;DHT22;17114;52.314;8.910;2023-03-18T04:49:46;10.70;99.90
30308;DHT22;17114;52.314;8.910;2023-03-18T04:52:14;10.70;99.90
30308;DHT22;17114;52.314;8.910;2023-03-18T04:54:42;10.60;99.90
30308;DHT22;17114;52.314;8.910;2023-03-18T04:57:09;10.60;99.90
30308;DHT22;17114;52.314;8.910;2023-03-18T04:59:36;10.60;99.90
30308;DHT22;17114;52.314;8.910;2023-03-18T05:02:03;10.60;99.90
30308;DHT22;17114;52.314;8.910;2023-03-18T05:04:30;10.60;99.90
30308;DHT22;17114;52.314;8.910;2023-03-18T05:06:57;10.60;99.90
30308;DHT22;17114;52.314;8.910;2023-03-18T05:09:24;10.60;99.90
30308;DHT22;17114;52.314;8.910;2023-03-18T05:11:52;10.60;99.90
30308;DHT22;17114;52.314;8.910;2023-03-18T05:14:19;10.70;99.90
30308;DHT22;17114;52.314;8.910;2023-03-18T05:16:47;10.70;99.90
30308;DHT22;17114;52.314;8.910;2023-03-18T05:19:14;10.80;99.90
30308;DHT22;17114;52.314;8.910;2023-03-18T05:21:41;10.80;99.90
30308;DHT22;17114;52.314;8.910;2023-03-18T05:24:09;10.80;99.90
30308;DHT22;17114;52.314;8.910;2023-03-18T05:26:37;10.80;99.90
30308;DHT22;17114;52.314;8.910;2023-03-18T05:29:04;10.80;99.90
30308;DHT22;17114;52.314;8.910;2023-03-18T05:31:31;10.90;99.90
30308;DHT22;17114;52.314;8.910;2023-03-18T05:33:58;10.90;99.90
30308;DHT22;17114;52.314;8.910;2023-03-18T05:36:26;10.90;99.90
30308;DHT22;17114;52.314;8.910;2023-03-18T05:38:53;10.90;99.90
30308;DHT22;17114;52.314;8.910;2023-03-18T05:41:20;10.90;99.90
30308;DHT22;17114;52.314;8.910;2023-03-18T05:43:47;10.80;99.90
30308;DHT22;17114;52.314;8.910;2023-03-18T05:46:14;10.80;99.90
30308;DHT22;17114;52.314;8.910;2023-03-18T05:48:42;10.80;99.90
30308;DHT22;17114;52.314;8.910;2023-03-18T05:51:09;10.80;99.90
30308;DHT22;17114;52.314;8.910;2023-03-18T05:53:36;10.70;99.90
30308;DHT22;17114;52.314;8.910;2023-03-18T05:56:04;10.70;99.90
30308;DHT22;17114;52.314;8.910;2023-03-18T05:58:31;10.70;99.90
30308;DHT22;17114;52.314;8.910;2023-03-18T06:00:58;10.70;99.90
30308;DHT22;17114;52.314;8.910;2023-03-18T06:03:26;10.70;99.90
30308;DHT22;17114;52.314;8.910;2023-03-18T06:05:53;10.70;99.90
30308;DHT22;17114;52.314;8.910;2023-03-18T06:08:20;10.70;99.90
30308;DHT22;17114;52.314;8.910;2023-03-18T06:10:48;10.70;99.90
30308;DHT22;17114;52.314;8.910;2023-03-18T06:13:15;10.70;99.90
30308;DHT22;17114;52.314;8.910;2023-03-18T06:15:42;10.80;99.90
30308;DHT22;17114;52.314;8.910;2023-03-18T06:18:09;10.80;99.90
30308;DHT22;17114;52.314;8.910;2023-03-18T06:20:36;10.90;99.90
30308;DHT22;17114;52.314;8.910;2023-03-18T06:23:04;11.00;99.90
30308;DHT22;17114;52.314;8.910;2023-03-18T06:25:31;11.10;99.90
30308;DHT22;17114;52.314;8.910;2023-03-18T06:27:58;11.30;99.90
30308;DHT22;17114;52.314;8.910;2023-03-18T06:30:25;11.40;99.90
30308;DHT22;17114;52.314;8.910;2023-03-18T06:32:53;11.40;99.90
30308;DHT22;17114;52.314;8.910;2023-03-18T06:35:20;11.40;99.90
30308;DHT22;17114;52.314;8.910;2023-03-18T06:37:47;11.40;99.90
30308;DHT22;17114;52.314;8.910;2023-03-18T06:40:14;11.40;99.90
30308;DHT22;17114;52.314;8.910;2023-03-18T06:42:41;11.40;99.90
30308;DHT22;17114;52.314;8.910;2023-03-18T06:45:09;11.40;99.90
30308;DHT22;17114;52.314;8.910;2023-03-18T06:47:36;11.50;99.90
30308;DHT22;17114;52.314;8.910;2023-03-18T06:50:04;11.40;99.90
30308;DHT22;17114;52.314;8.910;2023-03-18T06:52:32;11.50;99.90
30308;DHT22;17114;52.314;8.910;2023-03-18T06:54:59;11.60;99.90
30308;DHT22;17114;52.314;8.910;2023-03-18T06:57:26;11.60;99.90
30308;DHT22;17114;52.314;8.910;2023-03-18T06:59:54;11.60;99.90
30308;DHT22;17114;52.314;8.910;2023-03-18T07:02:21;11.70;99.90
30308;DHT22;17114;52.314;8.910;2023-03-18T07:04:53;11.80;99.90
30308;DHT22;17114;52.314;8.910;2023-03-18T07:07:21;11.80;99.90
30308;DHT22;17114;52.314;8.910;2023-03-18T07:09:48;11.90;99.90
30308;DHT22;17114;52.314;8.910;2023-03-18T07:12:16;11.90;99.90
30308;DHT22;17114;52.314;8.910;2023-03-18T07:14:45;12.00;99.90
30308;DHT22;17114;52.314;8.910;2023-03-18T07:17:13;12.40;99.90
30308;DHT22;17114;52.314;8.910;2023-03-18T07:19:40;12.90;99.90
30308;DHT22;17114;52.314;8.910;2023-03-18T07:22:07;13.40;99.90
30308;DHT22;17114;52.314;8.910;2023-03-18T07:24:34;13.90;99.90
30308;DHT22;17114;52.314;8.910;2023-03-18T07:27:02;13.80;99.90
30308;DHT22;17114;52.314;8.910;2023-03-18T07:29:30;13.70;99.90
30308;DHT22;17114;52.314;8.910;2023-03-18T07:31:57;13.40;99.90
30308;DHT22;17114;52.314;8.910;2023-03-18T07:34:23;13.10;99.90
30308;DHT22;17114;52.314;8.910;2023-03-18T07:36:50;12.90;99.90
30308;DHT22;17114;52.314;8.910;2023-03-18T07:39:18;12.80;99.90
30308;DHT22;17114;52.314;8.910;2023-03-18T07:41:46;12.70;99.90
30308;DHT22;17114;52.314;8.910;2023-03-18T07:44:15;12.80;99.90
30308;DHT22;17114;52.314;8.910;2023-03-18T07:46:42;12.70;99.90
30308;DHT22;17114;52.314;8.910;2023-03-18T07:49:09;12.70;99.90
30308;DHT22;17114;52.314;8.910;2023-03-18T07:51:37;12.80;99.90
30308;DHT22;17114;52.314;8.910;2023-03-18T07:54:04;12.80;99.90
30308;DHT22;17114;52.314;8.910;2023-03-18T07:56:31;13.00;99.90
30308;DHT22;17114;52.314;8.910;2023-03-18T07:58:58;13.10;99.90
30308;DHT22;17114;52.314;8.910;2023-03-18T08:01:25;13.20;99.90
30308;DHT22;17114;52.314;8.910;2023-03-18T08:03:53;13.10;99.90
30308;DHT22;17114;52.314;8.910;2023-03-18T08:06:20;13.40;99.90
30308;DHT22;17114;52.314;8.910;2023-03-18T08:08:48;13.60;99.90
30308;DHT22;17114;52.314;8.910;2023-03-18T08:11:16;13.60;99.90
30308;DHT22;17114;52.314;8.910;2023-03-18T08:13:43;13.60;99.90
30308;DHT22;17114;52.314;8.910;2023-03-18T08:16:10;13.50;99.90
30308;DHT22;17114;52.314;8.910;2023-03-18T08:18:38;13.50;99.90
30308;DHT22;17114;52.314;8.910;2023-03-18T08:21:05;13.50;99.90
30308;DHT22;17114;52.314;8.910;2023-03-18T08:23:33;13.40;99.90
30308;DHT22;17114;52.314;8.910;2023-03-18T08:26:02;13.30;99.90
30308;DHT22;17114;52.314;8.910;2023-03-18T08:28:29;13.30;99.90
30308;DHT22;17114;52.314;8.910;2023-03-18T08:30:57;13.30;99.90
30308;DHT22;17114;52.314;8.910;2023-03-18T08:33:26;13.40;99.90
30308;DHT22;17114;52.314;8.910;2023-03-18T08:35:54;13.40;99.90
30308;DHT22;17114;52.314;8.910;2023-03-18T08:38:22;13.40;99.90
30308;DHT22;17114;52.314;8.910;2023-03-18T08:40:50;13.40;99.90
30308;DHT22;17114;52.314;8.910;2023-03-18T08:43:17;13.20;99.90
30308;DHT22;17114;52.314;8.910;2023-03-18T08:45:55;13.20;99.90
30308;DHT22;17114;52.314;8.910;2023-03-18T08:48:23;13.80;99.90
30308;DHT22;17114;52.314;8.910;2023-03-18T08:50:51;14.10;99.90
30308;DHT22;17114;52.314;8.910;2023-03-18T08:53:19;14.10;99.90
30308;DHT22;17114;52.314;8.910;2023-03-18T08:55:46;14.00;99.90
30308;DHT22;17114;52.314;8.910;2023-03-18T08:58:14;13.80;99.90
30308;DHT22;17114;52.314;8.910;2023-03-18T09:00:41;13.70;99.90
30308;DHT22;17114;52.314;8.910;2023-03-18T09:03:09;13.60;99.90
30308;DHT22;17114;52.314;8.910;2023-03-18T09:05:36;13.60;99.90
30308;DHT22;17114;52.314;8.910;2023-03-18T09:08:04;13.50;99.90
30308;DHT22;17114;52.314;8.910;2023-03-18T09:10:32;13.50;99.90
30308;DHT22;17114;52.314;8.910;2023-03-18T09:13:00;13.40;99.90
30308;DHT22;17114;52.314;8.910;2023-03-18T09:15:27;13.40;99.90
30308;DHT22;17114;52.314;8.910;2023-03-18T09:17:54;13.40;99.90
30308;DHT22;17114;52.314;8.910;2023-03-18T09:20:37;13.40;99.90
30308;DHT22;17114;52.314;8.910;2023-03-18T09:23:05;13.50;99.90
30308;DHT22;17114;52.314;8.910;2023-03-18T09:25:32;13.70;99.90
30308;DHT22;17114;52.314;8.910;2023-03-18T09:28:03;14.10;99.90
30308;DHT22;17114;52.314;8.910;2023-03-18T09:30:30;14.50;99.90
30308;DHT22;17114;52.314;8.910;2023-03-18T09:32:58;15.10;99.90
30308;DHT22;17114;52.314;8.910;2023-03-18T09:35:26;15.40;99.90
30308;DHT22;17114;52.314;8.910;2023-03-18T09:37:54;15.60;99.90
30308;DHT22;17114;52.314;8.910;2023-03-18T09:40:33;15.90;99.90
30308;DHT22;17114;52.314;8.910;2023-03-18T09:54:09;15.80;99.90
30308;DHT22;17114;52.314;8.910;2023-03-18T09:56:38;15.60;99.90
30308;DHT22;17114;52.314;8.910;2023-03-18T09:59:18;15.50;99.90
30308;DHT22;17114;52.314;8.910;2023-03-18T10:01:51;15.30;99.90
30308;DHT22;17114;52.314;8.910;2023-03-18T10:04:21;15.20;99.90
30308;DHT22;17114;52.314;8.910;2023-03-18T10:06:53;15.10;99.90
30308;DHT22;17114;52.314;8.910;2023-03-18T10:11:52;15.20;99.90
30308;DHT22;17114;52.314;8.910;2023-03-18T10:17:24;15.50;99.90
30308;DHT22;17114;52.314;8.910;2023-03-18T10:19:56;15.80;99.90
30308;DHT22;17114;52.314;8.910;2023-03-18T10:25:10;15.80;99.90
30308;DHT22;17114;52.314;8.910;2023-03-18T10:28:38;15.50;99.90
30308;DHT22;17114;52.314;8.910;2023-03-18T10:31:05;15.50;99.90
30308;DHT22;17114;52.314;8.910;2023-03-18T10:34:18;15.90;99.90
30308;DHT22;17114;52.314;8.910;2023-03-18T10:39:40;16.70;99.90
30308;DHT22;17114;52.314;8.910;2023-03-18T10:42:20;16.80;99.90
30308;DHT22;17114;52.314;8.910;2023-03-18T10:44:49;17.10;99.90
30308;DHT22;17114;52.314;8.910;2023-03-18T10:47:29;17.30;99.90
30308;DHT22;17114;52.314;8.910;2023-03-18T10:50:17;17.30;99.90
30308;DHT22;17114;52.314;8.910;2023-03-18T10:55:17;17.50;99.90
30308;DHT22;17114;52.314;8.910;2023-03-18T10:57:47;17.50;99.90
30308;DHT22;17114;52.314;8.910;2023-03-18T11:00:30;17.50;99.90
30308;DHT22;17114;52.314;8.910;2023-03-18T11:02:59;17.40;99.90
30308;DHT22;17114;52.314;8.910;2023-03-18T11:05:34;17.30;99.90
30308;DHT22;17114;52.314;8.910;2023-03-18T11:08:06;17.20;99.90
30308;DHT22;17114;52.314;8.910;2023-03-18T11:10:44;17.00;99.90
30308;DHT22;17114;52.314;8.910;2023-03-18T11:13:16;17.00;99.90
30308;DHT22;17114;52.314;8.910;2023-03-18T11:15:51;16.90;99.90
30308;DHT22;17114;52.314;8.910;2023-03-18T11:18:24;17.00;99.90
30308;DHT22;17114;52.314;8.910;2023-03-18T11:20:57;17.30;99.90
30308;DHT22;17114;52.314;8.910;2023-03-18T11:23:35;17.40;99.90
30308;DHT22;17114;52.314;8.910;2023-03-18T11:26:26;17.20;99.90
30308;DHT22;17114;52.314;8.910;2023-03-18T11:28:58;17.20;99.90
30308;DHT22;17114;52.314;8.910;2023-03-18T11:31:26;17.10;99.90
30308;DHT22;17114;52.314;8.910;2023-03-18T11:33:57;16.90;99.90
30308;DHT22;17114;52.314;8.910;2023-03-18T11:36:26;17.10;99.90
30308;DHT22;17114;52.314;8.910;2023-03-18T11:39:02;17.20;99.90
30308;DHT22;17114;52.314;8.910;2023-03-18T11:41:31;17.20;99.90
30308;DHT22;17114;52.314;8.910;2023-03-18T11:44:06;17.10;99.90
30308;DHT22;17114;52.314;8.910;2023-03-18T11:49:16;17.40;99.90
30308;DHT22;17114;52.314;8.910;2023-03-18T11:52:05;17.40;99.90
30308;DHT22;17114;52.314;8.910;2023-03-18T11:57:29;17.10;99.90
30308;DHT22;17114;52.314;8.910;2023-03-18T12:05:45;17.50;99.90
30308;DHT22;17114;52.314;8.910;2023-03-18T12:08:52;17.70;99.90
30308;DHT22;17114;52.314;8.910;2023-03-18T12:11:45;18.00;99.90
30308;DHT22;17114;52.314;8.910;2023-03-18T12:16:59;18.00;99.90
30308;DHT22;17114;52.314;8.910;2023-03-18T12:22:30;18.00;99.90
30308;DHT22;17114;52.314;8.910;2023-03-18T12:33:04;18.20;99.90
30308;DHT22;17114;52.314;8.910;2023-03-18T12:41:17;17.80;99.90
30308;DHT22;17114;52.314;8.910;2023-03-18T12:47:13;18.00;99.90
30308;DHT22;17114;52.314;8.910;2023-03-18T12:52:28;18.00;99.90
30308;DHT22;17114;52.314;8.910;2023-03-18T12:57:35;18.10;99.90
30308;DHT22;17114;52.314;8.910;2023-03-18T13:00:29;18.10;99.90
30308;DHT22;17114;52.314;8.910;2023-03-18T13:03:05;18.00;99.90
30308;DHT22;17114;52.314;8.910;2023-03-18T13:05:53;17.90;99.90
30308;DHT22;17114;52.314;8.910;2023-03-18T13:14:25;18.00;99.90
30308;DHT22;17114;52.314;8.910;2023-03-18T13:16:54;18.10;99.90
30308;DHT22;17114;52.314;8.910;2023-03-18T13:19:22;18.20;99.90
30308;DHT22;17114;52.314;8.910;2023-03-18T13:22:07;18.30;99.90
30308;DHT22;17114;52.314;8.910;2023-03-18T13:27:36;18.30;99.90
30308;DHT22;17114;52.314;8.910;2023-03-18T13:43:40;17.60;99.90
30308;DHT22;17114;52.314;8.910;2023-03-18T13:46:21;17.50;99.90
30308;DHT22;17114;52.314;8.910;2023-03-18T13:49:00;17.60;99.90
30308;DHT22;17114;52.314;8.910;2023-03-18T13:54:02;17.60;99.90
30308;DHT22;17114;52.314;8.910;2023-03-18T13:59:34;17.30;99.90
30308;DHT22;17114;52.314;8.910;2023-03-18T14:01:58;17.30;99.90
30308;DHT22;17114;52.314;8.910;2023-03-18T14:04:45;17.30;99.90
30308;DHT22;17114;52.314;8.910;2023-03-18T14:07:19;17.20;99.90
30308;DHT22;17114;52.314;8.910;2023-03-18T14:12:38;17.10;99.90
30308;DHT22;17114;52.314;8.910;2023-03-18T14:17:45;17.00;99.90
30308;DHT22;17114;52.314;8.910;2023-03-18T14:22:45;16.90;99.90
30308;DHT22;17114;52.314;8.910;2023-03-18T14:27:51;16.90;99.90
30308;DHT22;17114;52.314;8.910;2023-03-18T14:33:50;16.80;99.90
30308;DHT22;17114;52.314;8.910;2023-03-18T14:36:07;16.70;99.90
30308;DHT22;17114;52.314;8.910;2023-03-18T14:38:41;16.80;99.90
30308;DHT22;17114;52.314;8.910;2023-03-18T14:41:25;16.80;99.90
30308;DHT22;17114;52.314;8.910;2023-03-18T14:47:40;16.90;99.90
30308;DHT22;17114;52.314;8.910;2023-03-18T14:52:43;16.90;99.90
30308;DHT22;17114;52.314;8.910;2023-03-18T14:55:21;16.90;99.90
30308;DHT22;17114;52.314;8.910;2023-03-18T14:58:00;16.90;99.90
30308;DHT22;17114;52.314;8.910;2023-03-18T15:00:34;16.90;99.90
30308;DHT22;17114;52.314;8.910;2023-03-18T15:03:15;17.00;99.90
30308;DHT22;17114;52.314;8.910;2023-03-18T15:05:46;17.10;99.90
30308;DHT22;17114;52.314;8.910;2023-03-18T15:08:21;17.00;99.90
30308;DHT22;17114;52.314;8.910;2023-03-18T15:10:49;17.00;99.90
30308;DHT22;17114;52.314;8.910;2023-03-18T15:13:20;16.90;99.90
30308;DHT22;17114;52.314;8.910;2023-03-18T15:15:51;16.80;99.90
30308;DHT22;17114;52.314;8.910;2023-03-18T15:18:24;16.80;99.90
30308;DHT22;17114;52.314;8.910;2023-03-18T15:21:22;16.70;99.90
30308;DHT22;17114;52.314;8.910;2023-03-18T15:23:52;16.60;99.90
30308;DHT22;17114;52.314;8.910;2023-03-18T15:26:25;16.60;99.90
30308;DHT22;17114;52.314;8.910;2023-03-18T15:28:57;16.60;99.90
30308;DHT22;17114;52.314;8.910;2023-03-18T15:31:30;16.50;99.90
30308;DHT22;17114;52.314;8.910;2023-03-18T15:36:52;16.50;99.90
30308;DHT22;17114;52.314;8.910;2023-03-18T15:39:35;16.50;99.90
30308;DHT22;17114;52.314;8.910;2023-03-18T15:42:14;16.50;99.90
30308;DHT22;17114;52.314;8.910;2023-03-18T15:44:43;16.60;99.90
30308;DHT22;17114;52.314;8.910;2023-03-18T15:47:26;16.60;99.90
30308;DHT22;17114;52.314;8.910;2023-03-18T15:50:00;16.60;99.90
30308;DHT22;17114;52.314;8.910;2023-03-18T15:52:33;16.60;99.90
30308;DHT22;17114;52.314;8.910;2023-03-18T15:55:02;16.60;99.90
30308;DHT22;17114;52.314;8.910;2023-03-18T15:57:38;16.70;99.90
30308;DHT22;17114;52.314;8.910;2023-03-18T16:00:07;16.70;99.90
30308;DHT22;17114;52.314;8.910;2023-03-18T16:02:36;16.70;99.90
30308;DHT22;17114;52.314;8.910;2023-03-18T16:05:06;16.70;99.90
30308;DHT22;17114;52.314;8.910;2023-03-18T16:07:33;16.60;99.90
30308;DHT22;17114;52.314;8.910;2023-03-18T16:10:01;16.50;99.90
30308;DHT22;17114;52.314;8.910;2023-03-18T16:12:30;16.40;99.90
30308;DHT22;17114;52.314;8.910;2023-03-18T16:15:02;16.40;99.90
30308;DHT22;17114;52.314;8.910;2023-03-18T16:17:30;16.30;99.90
30308;DHT22;17114;52.314;8.910;2023-03-18T16:19:59;16.30;99.90
30308;DHT22;17114;52.314;8.910;2023-03-18T16:22:29;16.30;99.90
30308;DHT22;17114;52.314;8.910;2023-03-18T16:24:59;16.20;99.90
30308;DHT22;17114;52.314;8.910;2023-03-18T16:27:31;16.20;99.90
30308;DHT22;17114;52.314;8.910;2023-03-18T16:30:01;16.10;99.90
30308;DHT22;17114;52.314;8.910;2023-03-18T16:32:28;16.00;99.90
30308;DHT22;17114;52.314;8.910;2023-03-18T16:34:57;16.00;99.90
30308;DHT22;17114;52.314;8.910;2023-03-18T16:37:25;15.90;99.90
30308;DHT22;17114;52.314;8.910;2023-03-18T16:39:53;15.80;99.90
30308;DHT22;17114;52.314;8.910;2023-03-18T16:42:23;15.70;99.90
30308;DHT22;17114;52.314;8.910;2023-03-18T16:44:50;15.60;99.90
30308;DHT22;17114;52.314;8.910;2023-03-18T16:47:24;15.50;99.90
30308;DHT22;17114;52.314;8.910;2023-03-18T16:49:54;15.40;99.90
30308;DHT22;17114;52.314;8.910;2023-03-18T16:52:24;15.30;99.90
30308;DHT22;17114;52.314;8.910;2023-03-18T16:54:51;15.20;99.90
30308;DHT22;17114;52.314;8.910;2023-03-18T16:57:19;15.10;99.90
30308;DHT22;17114;52.314;8.910;2023-03-18T16:59:50;15.00;99.90
30308;DHT22;17114;52.314;8.910;2023-03-18T17:02:33;14.90;99.90
30308;DHT22;17114;52.314;8.910;2023-03-18T17:05:01;14.90;99.90
30308;DHT22;17114;52.314;8.910;2023-03-18T17:07:28;14.80;99.90
30308;DHT22;17114;52.314;8.910;2023-03-18T17:09:56;14.70;99.90
30308;DHT22;17114;52.314;8.910;2023-03-18T17:12:23;14.50;99.90
30308;DHT22;17114;52.314;8.910;2023-03-18T17:14:54;14.50;99.90
30308;DHT22;17114;52.314;8.910;2023-03-18T17:17:33;14.40;99.90
30308;DHT22;17114;52.314;8.910;2023-03-18T17:20:18;14.20;99.90
30308;DHT22;17114;52.314;8.910;2023-03-18T17:22:47;14.10;99.90
30308;DHT22;17114;52.314;8.910;2023-03-18T17:25:14;14.00;99.90
30308;DHT22;17114;52.314;8.910;2023-03-18T17:27:45;13.90;99.90
30308;DHT22;17114;52.314;8.910;2023-03-18T17:30:34;13.80;99.90
30308;DHT22;17114;52.314;8.910;2023-03-18T17:33:03;13.70;99.90
30308;DHT22;17114;52.314;8.910;2023-03-18T17:35:30;13.60;99.90
30308;DHT22;17114;52.314;8.910;2023-03-18T17:37:58;13.40;99.90
30308;DHT22;17114;52.314;8.910;2023-03-18T17:40:28;13.40;99.90
30308;DHT22;17114;52.314;8.910;2023-03-18T17:42:56;13.30;99.90
30308;DHT22;17114;52.314;8.910;2023-03-18T17:45:32;13.20;99.90
30308;DHT22;17114;52.314;8.910;2023-03-18T17:48:15;13.20;99.90
30308;DHT22;17114;52.314;8.910;2023-03-18T17:50:51;13.10;99.90
30308;DHT22;17114;52.314;8.910;2023-03-18T17:53:35;13.10;99.90